createdAt,value
2022-10-01T00:00:18.596Z,10.45
2022-10-01T00:00:41.224Z,10.05
2022-10-01T00:01:05.548Z,10.43
2022-10-01T00:01:28.367Z,10.05
2022-10-01T00:01:51.289Z,9.98
2022-10-01T00:02:14.070Z,10.10
2022-10-01T00:02:37.975Z,10.18
2022-10-01T00:03:02.216Z,10.10
2022-10-01T00:03:26.101Z,9.48
2022-10-01T00:03:48.825Z,9.68
2022-10-01T00:04:11.499Z,10.98
2022-10-01T00:04:35.967Z,10.63
2022-10-01T00:04:58.756Z,9.52
2022-10-01T00:05:21.436Z,10.02
2022-10-01T00:05:44.239Z,9.90
2022-10-01T00:06:09.651Z,9.70
2022-10-01T00:06:32.311Z,9.75
2022-10-01T00:06:54.998Z,10.23
2022-10-01T00:07:18.556Z,9.05
2022-10-01T00:07:41.521Z,9.90
2022-10-01T00:08:04.102Z,11.95
2022-10-01T00:08:27.696Z,12.05
2022-10-01T00:08:50.748Z,10.63
2022-10-01T00:09:13.422Z,10.35
2022-10-01T00:09:36.156Z,11.63
2022-10-01T00:09:58.861Z,14.38
2022-10-01T00:10:22.566Z,13.95
2022-10-01T00:10:45.281Z,13.27
2022-10-01T00:11:09.611Z,15.02
2022-10-01T00:11:34.562Z,15.45
2022-10-01T00:12:00.168Z,13.40
2022-10-01T00:12:22.886Z,15.05
2022-10-01T00:12:47.121Z,13.50
2022-10-01T00:13:09.956Z,14.95
2022-10-01T00:13:33.226Z,15.32
2022-10-01T00:13:55.992Z,17.50
2022-10-01T00:14:19.386Z,15.38
2022-10-01T00:14:42.045Z,14.48
2022-10-01T00:15:13.359Z,16.20
2022-10-01T00:15:38.930Z,16.20
2022-10-01T00:16:04.257Z,15.25
2022-10-01T00:16:28.207Z,16.75
2022-10-01T00:16:51.186Z,17.25
2022-10-01T00:17:14.104Z,15.00
2022-10-01T00:17:37.172Z,15.93
2022-10-01T00:18:01.210Z,15.45
2022-10-01T00:18:23.861Z,14.65
2022-10-01T00:18:47.057Z,14.10
2022-10-01T00:19:13.136Z,13.18
2022-10-01T00:19:35.886Z,14.65
2022-10-01T00:19:58.577Z,13.20
2022-10-01T00:20:21.392Z,13.90
2022-10-01T00:20:44.037Z,16.02
2022-10-01T00:21:08.017Z,16.65
2022-10-01T00:21:32.075Z,15.60
2022-10-01T00:21:55.152Z,14.40
2022-10-01T00:22:19.136Z,13.02
2022-10-01T00:22:41.815Z,13.65
2022-10-01T00:23:04.530Z,13.93
2022-10-01T00:23:27.166Z,13.63
2022-10-01T00:23:55.434Z,13.30
2022-10-01T00:24:19.102Z,14.65
2022-10-01T00:24:41.796Z,20.17
2022-10-01T00:25:05.590Z,17.02
2022-10-01T00:25:29.453Z,14.63
2022-10-01T00:25:53.777Z,13.20
2022-10-01T00:26:17.375Z,15.20
2022-10-01T00:26:40.076Z,15.57
2022-10-01T00:27:02.911Z,15.50
2022-10-01T00:27:25.591Z,16.55
2022-10-01T00:27:49.337Z,16.67
2022-10-01T00:28:12.343Z,15.52
2022-10-01T00:28:35.281Z,15.82
2022-10-01T00:28:59.211Z,16.92
2022-10-01T00:29:21.976Z,16.05
2022-10-01T00:29:45.446Z,17.25
2022-10-01T00:30:10.156Z,15.30
2022-10-01T00:30:40.146Z,16.15
2022-10-01T00:31:03.294Z,15.18
2022-10-01T00:31:26.333Z,15.70
2022-10-01T00:31:49.280Z,16.58
2022-10-01T00:32:12.231Z,17.75
2022-10-01T00:32:34.978Z,18.40
2022-10-01T00:32:57.691Z,17.45
2022-10-01T00:33:21.751Z,18.15
2022-10-01T00:33:44.476Z,18.65
2022-10-01T00:34:07.232Z,19.85
2022-10-01T00:34:29.971Z,19.88
2022-10-01T00:34:53.918Z,20.25
2022-10-01T00:35:16.721Z,19.55
2022-10-01T00:35:39.482Z,19.05
2022-10-01T00:36:02.580Z,19.30
2022-10-01T00:36:25.357Z,18.35
2022-10-01T00:36:48.105Z,17.75
2022-10-01T00:37:10.880Z,18.33
2022-10-01T00:37:35.522Z,21.02
2022-10-01T00:37:58.202Z,19.00
2022-10-01T00:38:20.959Z,17.60
2022-10-01T00:38:44.011Z,17.13
2022-10-01T00:39:06.761Z,19.95
2022-10-01T00:39:29.520Z,18.67
2022-10-01T00:39:52.345Z,18.05
2022-10-01T00:40:15.100Z,17.70
2022-10-01T00:40:37.770Z,19.45
2022-10-01T00:41:00.634Z,17.65
2022-10-01T00:41:23.355Z,18.67
2022-10-01T00:41:46.762Z,18.70
2022-10-01T00:42:18.324Z,19.33
2022-10-01T00:42:42.121Z,20.27
2022-10-01T00:43:20.174Z,20.20
2022-10-01T00:43:45.130Z,21.08
2022-10-01T00:44:29.457Z,19.75
2022-10-01T00:44:53.605Z,18.27
2022-10-01T00:45:16.558Z,17.95
2022-10-01T00:45:39.815Z,18.65
2022-10-01T00:46:03.946Z,17.80
2022-10-01T00:46:28.165Z,17.27
2022-10-01T00:46:50.968Z,17.60
2022-10-01T00:47:21.531Z,16.35
2022-10-01T00:47:47.397Z,19.08
2022-10-01T00:48:10.097Z,19.42
2022-10-01T00:48:37.934Z,19.75
2022-10-01T00:49:01.577Z,17.50
2022-10-01T00:49:25.146Z,17.13
2022-10-01T00:49:47.877Z,17.98
2022-10-01T00:50:13.632Z,18.15
2022-10-01T00:50:38.257Z,17.90
2022-10-01T00:51:01.012Z,19.70
2022-10-01T00:51:24.337Z,21.10
2022-10-01T00:51:49.204Z,20.05
2022-10-01T00:52:15.218Z,20.20
2022-10-01T00:52:39.966Z,19.50
2022-10-01T00:53:05.286Z,22.98
2022-10-01T00:53:27.901Z,19.27
2022-10-01T00:53:50.880Z,21.00
2022-10-01T00:54:15.093Z,19.15
2022-10-01T00:54:39.964Z,18.83
2022-10-01T00:55:05.455Z,20.10
2022-10-01T00:55:30.885Z,19.80
2022-10-01T00:55:55.322Z,19.27
2022-10-01T00:56:18.710Z,22.50
2022-10-01T00:56:41.671Z,21.77
2022-10-01T00:57:04.356Z,24.50
2022-10-01T00:57:27.246Z,24.50
2022-10-01T00:57:50.299Z,23.75
2022-10-01T00:58:13.385Z,25.27
2022-10-01T00:58:36.220Z,24.70
2022-10-01T00:58:59.910Z,25.85
2022-10-01T00:59:22.635Z,25.55
2022-10-01T00:59:46.075Z,24.13
2022-10-01T01:00:11.046Z,25.73
2022-10-01T01:00:33.783Z,26.95
2022-10-01T01:00:59.298Z,26.95
2022-10-01T01:01:22.474Z,26.05
2022-10-01T01:01:45.813Z,24.70
2022-10-01T01:02:11.121Z,25.70
2022-10-01T01:02:33.923Z,24.85
2022-10-01T01:02:56.839Z,25.70
2022-10-01T01:03:19.607Z,25.13
2022-10-01T01:03:43.724Z,22.35
2022-10-01T01:04:16.823Z,22.63
2022-10-01T01:04:40.164Z,23.30
2022-10-01T01:05:03.040Z,24.42
2022-10-01T01:05:26.889Z,24.92
2022-10-01T01:05:50.370Z,25.95
2022-10-01T01:06:13.079Z,24.10
2022-10-01T01:06:35.819Z,25.02
2022-10-01T01:06:59.507Z,25.58
2022-10-01T01:07:22.185Z,26.63
2022-10-01T01:07:46.721Z,25.05
2022-10-01T01:08:09.426Z,23.50
2022-10-01T01:08:32.839Z,23.45
2022-10-01T01:08:55.689Z,23.58
2022-10-01T01:09:18.369Z,27.48
2022-10-01T01:09:42.429Z,26.20
2022-10-01T01:10:05.598Z,25.30
2022-10-01T01:10:30.690Z,24.63
2022-10-01T01:10:56.669Z,26.02
2022-10-01T01:11:23.281Z,24.35
2022-10-01T01:11:48.512Z,26.73
2022-10-01T01:12:17.426Z,26.25
2022-10-01T01:12:57.914Z,24.80
2022-10-01T01:13:24.280Z,27.67
2022-10-01T01:13:51.100Z,24.33
2022-10-01T01:14:16.639Z,25.85
2022-10-01T01:14:42.550Z,25.85
2022-10-01T01:15:11.841Z,26.50
2022-10-01T01:15:36.944Z,23.70
2022-10-01T01:16:03.675Z,25.10
2022-10-01T01:16:29.303Z,27.95
2022-10-01T01:16:54.401Z,28.25
2022-10-01T01:17:21.571Z,29.55
2022-10-01T01:17:50.880Z,30.00
2022-10-01T01:18:16.137Z,28.30
2022-10-01T01:18:42.318Z,26.50
2022-10-01T01:19:10.721Z,27.80
2022-10-01T01:19:43.531Z,27.83
2022-10-01T01:20:16.941Z,32.10
2022-10-01T01:21:04.822Z,28.88
2022-10-01T01:21:29.122Z,32.22
2022-10-01T01:21:53.293Z,35.03
2022-10-01T01:22:16.128Z,35.40
2022-10-01T01:22:41.921Z,32.78
2022-10-01T01:23:10.252Z,32.15
2022-10-01T01:24:01.997Z,34.72
2022-10-01T01:24:41.449Z,37.42
2022-10-01T01:25:05.027Z,31.23
2022-10-01T01:25:30.336Z,33.05
2022-10-01T01:25:55.861Z,33.90
2022-10-01T01:26:25.304Z,33.38
2022-10-01T01:26:59.524Z,37.97
2022-10-01T01:27:31.666Z,37.22
2022-10-01T01:28:04.684Z,37.88
2022-10-01T01:28:31.911Z,39.60
2022-10-01T01:28:56.825Z,37.50
2022-10-01T01:29:22.234Z,43.00
2022-10-01T01:29:46.915Z,46.55
2022-10-01T01:30:11.071Z,41.63
2022-10-01T01:30:33.807Z,39.92
2022-10-01T01:30:57.072Z,37.85
2022-10-01T01:31:23.759Z,41.10
2022-10-01T01:31:46.710Z,39.60
2022-10-01T01:32:14.834Z,35.47
2022-10-01T01:32:46.471Z,38.47
2022-10-01T01:33:12.149Z,41.35
2022-10-01T01:33:35.678Z,39.92
2022-10-01T01:33:59.427Z,36.20
2022-10-01T01:34:24.268Z,34.10
2022-10-01T01:34:47.605Z,34.03
2022-10-01T01:35:10.876Z,35.00
2022-10-01T01:35:35.140Z,36.00
2022-10-01T01:35:59.691Z,35.97
2022-10-01T01:36:26.227Z,33.38
2022-10-01T01:36:53.280Z,30.48
2022-10-01T01:37:18.225Z,31.15
2022-10-01T01:37:45.340Z,32.22
2022-10-01T01:38:10.595Z,32.20
2022-10-01T01:38:38.587Z,31.50
2022-10-01T01:39:04.501Z,32.33
2022-10-01T01:39:28.408Z,34.42
2022-10-01T01:39:52.073Z,33.10
2022-10-01T01:40:14.860Z,32.65
2022-10-01T01:40:38.104Z,32.13
2022-10-01T01:41:01.741Z,33.92
2022-10-01T01:41:26.225Z,31.40
2022-10-01T01:41:51.664Z,28.85
2022-10-01T01:42:16.314Z,28.50
2022-10-01T01:42:41.184Z,27.80
2022-10-01T01:43:06.698Z,29.75
2022-10-01T01:43:33.599Z,28.52
2022-10-01T01:43:58.089Z,27.65
2022-10-01T01:44:22.323Z,30.45
2022-10-01T01:44:46.264Z,28.90
2022-10-01T01:45:11.054Z,28.58
2022-10-01T01:45:33.840Z,29.52
2022-10-01T01:45:58.621Z,28.48
2022-10-01T01:46:21.324Z,31.83
2022-10-01T01:46:46.289Z,32.15
2022-10-01T01:47:10.581Z,31.77
2022-10-01T01:47:34.565Z,34.65
2022-10-01T01:47:58.404Z,30.60
2022-10-01T01:48:21.889Z,31.25
2022-10-01T01:48:47.576Z,31.05
2022-10-01T01:49:10.397Z,33.90
2022-10-01T01:49:33.052Z,31.48
2022-10-01T01:49:55.765Z,29.95
2022-10-01T01:50:19.048Z,31.77
2022-10-01T01:50:45.113Z,31.27
2022-10-01T01:51:11.763Z,31.63
2022-10-01T01:51:36.910Z,30.27
2022-10-01T01:52:04.987Z,30.98
2022-10-01T01:52:27.867Z,30.23
2022-10-01T01:52:50.527Z,28.63
2022-10-01T01:53:15.258Z,26.40
2022-10-01T01:53:38.049Z,23.40
2022-10-01T01:54:00.682Z,24.17
2022-10-01T01:54:23.428Z,23.88
2022-10-01T01:54:49.915Z,22.92
2022-10-01T01:55:12.773Z,23.80
2022-10-01T01:55:35.525Z,23.75
2022-10-01T01:56:00.479Z,22.50
2022-10-01T01:56:23.538Z,21.02
2022-10-01T01:56:46.299Z,21.17
2022-10-01T01:57:08.968Z,20.90
2022-10-01T01:57:33.606Z,21.20
2022-10-01T01:57:56.311Z,21.27
2022-10-01T01:58:20.538Z,21.42
2022-10-01T01:58:43.237Z,21.45
2022-10-01T01:59:06.057Z,21.92
2022-10-01T01:59:28.827Z,20.35
2022-10-01T01:59:51.528Z,22.30
2022-10-01T02:00:14.569Z,22.95
2022-10-01T02:00:39.928Z,21.10
2022-10-01T02:01:02.729Z,19.77
2022-10-01T02:01:36.262Z,21.23
2022-10-01T02:01:59.697Z,20.30
2022-10-01T02:02:24.381Z,20.65
2022-10-01T02:02:49.324Z,20.83
2022-10-01T02:03:12.147Z,21.52
2022-10-01T02:03:34.936Z,21.30
2022-10-01T02:03:58.614Z,20.92
2022-10-01T02:04:23.092Z,20.25
2022-10-01T02:04:47.383Z,20.40
2022-10-01T02:05:11.082Z,20.02
2022-10-01T02:05:38.918Z,21.63
2022-10-01T02:06:07.492Z,19.02
2022-10-01T02:06:34.197Z,19.65
2022-10-01T02:07:16.323Z,20.00
2022-10-01T02:08:13.113Z,20.17
2022-10-01T02:08:38.172Z,20.35
2022-10-01T02:09:03.031Z,20.73
2022-10-01T02:09:28.732Z,20.70
2022-10-01T02:09:53.555Z,18.95
2022-10-01T02:10:22.871Z,17.70
2022-10-01T02:10:59.833Z,18.63
2022-10-01T02:11:25.690Z,19.50
2022-10-01T02:11:54.707Z,18.23
2022-10-01T02:12:24.487Z,18.13
2022-10-01T02:12:53.924Z,18.90
2022-10-01T02:13:25.867Z,18.08
2022-10-01T02:13:55.573Z,17.73
2022-10-01T02:14:24.572Z,20.70
2022-10-01T02:14:50.607Z,17.73
2022-10-01T02:15:17.309Z,17.75
2022-10-01T02:15:46.124Z,17.52
2022-10-01T02:16:15.138Z,18.45
2022-10-01T02:16:43.283Z,18.13
2022-10-01T02:17:09.000Z,17.40
2022-10-01T02:17:34.758Z,18.60
2022-10-01T02:17:59.667Z,16.98
2022-10-01T02:18:26.395Z,18.42
2022-10-01T02:18:51.630Z,16.08
2022-10-01T02:19:19.540Z,15.93
2022-10-01T02:19:44.812Z,15.68
2022-10-01T02:20:10.411Z,16.83
2022-10-01T02:20:36.359Z,15.63
2022-10-01T02:21:03.739Z,15.75
2022-10-01T02:21:30.728Z,15.32
2022-10-01T02:21:59.104Z,15.45
2022-10-01T02:22:23.094Z,15.23
2022-10-01T02:22:48.315Z,15.48
2022-10-01T02:23:13.503Z,16.10
2022-10-01T02:23:38.584Z,15.18
2022-10-01T02:24:02.887Z,15.95
2022-10-01T02:24:30.083Z,15.88
2022-10-01T02:24:57.141Z,16.55
2022-10-01T02:25:20.704Z,15.55
2022-10-01T02:25:45.666Z,14.30
2022-10-01T02:26:10.774Z,15.18
2022-10-01T02:26:33.427Z,14.85
2022-10-01T02:26:56.149Z,14.65
2022-10-01T02:27:20.643Z,12.75
2022-10-01T02:27:45.385Z,12.38
2022-10-01T02:28:08.950Z,14.15
2022-10-01T02:28:33.124Z,13.70
2022-10-01T02:28:59.594Z,13.00
2022-10-01T02:29:25.300Z,12.50
2022-10-01T02:29:48.071Z,12.48
2022-10-01T02:30:11.731Z,12.52
2022-10-01T02:30:36.014Z,11.98
2022-10-01T02:31:00.911Z,12.27
2022-10-01T02:31:24.045Z,12.82
2022-10-01T02:31:47.421Z,14.35
2022-10-01T02:32:12.657Z,13.35
2022-10-01T02:32:35.581Z,12.38
2022-10-01T02:32:59.399Z,12.38
2022-10-01T02:33:23.841Z,12.40
2022-10-01T02:33:46.590Z,12.45
2022-10-01T02:34:12.418Z,12.88
2022-10-01T02:34:35.668Z,12.07
2022-10-01T02:34:58.382Z,11.50
2022-10-01T02:35:22.065Z,11.75
2022-10-01T02:35:45.442Z,12.10
2022-10-01T02:36:08.408Z,11.85
2022-10-01T02:36:31.272Z,11.45
2022-10-01T02:36:53.912Z,11.80
2022-10-01T02:37:17.263Z,12.82
2022-10-01T02:37:40.853Z,12.65
2022-10-01T02:38:05.747Z,11.68
2022-10-01T02:38:28.513Z,11.02
2022-10-01T02:38:51.418Z,11.07
2022-10-01T02:39:14.228Z,11.43
2022-10-01T02:39:37.037Z,12.25
2022-10-01T02:39:59.983Z,11.73
2022-10-01T02:40:26.392Z,10.80
2022-10-01T02:40:49.117Z,11.15
2022-10-01T02:41:13.252Z,11.25
2022-10-01T02:41:36.873Z,11.40
2022-10-01T02:41:59.826Z,11.50
2022-10-01T02:42:22.868Z,10.93
2022-10-01T02:42:47.046Z,11.33
2022-10-01T02:43:11.518Z,10.85
2022-10-01T02:43:42.705Z,12.93
2022-10-01T02:44:07.143Z,12.35
2022-10-01T02:44:38.032Z,11.15
2022-10-01T02:45:02.888Z,10.65
2022-10-01T02:45:27.840Z,11.43
2022-10-01T02:45:55.524Z,11.57
2022-10-01T02:46:20.671Z,11.13
2022-10-01T02:46:46.382Z,11.35
2022-10-01T02:47:12.243Z,10.82
2022-10-01T02:47:38.077Z,10.27
2022-10-01T02:48:02.332Z,10.43
2022-10-01T02:48:26.402Z,10.75
2022-10-01T02:48:49.104Z,10.70
2022-10-01T02:49:13.435Z,10.68
2022-10-01T02:49:40.248Z,10.05
2022-10-01T02:50:03.003Z,10.25
2022-10-01T02:50:27.566Z,10.25
2022-10-01T02:50:52.479Z,10.90
2022-10-01T02:51:25.982Z,10.85
2022-10-01T02:51:53.746Z,11.80
2022-10-01T02:52:20.691Z,11.85
2022-10-01T02:52:45.767Z,12.00
2022-10-01T02:53:11.339Z,11.65
2022-10-01T02:53:36.018Z,11.27
2022-10-01T02:54:01.569Z,11.68
2022-10-01T02:54:27.116Z,11.25
2022-10-01T02:54:52.471Z,12.05
2022-10-01T02:55:17.815Z,11.05
2022-10-01T02:55:41.918Z,10.00
2022-10-01T02:56:04.799Z,12.20
2022-10-01T02:56:48.808Z,12.63
2022-10-01T02:57:29.865Z,12.70
2022-10-01T02:57:52.503Z,12.32
2022-10-01T02:58:15.253Z,12.20
2022-10-01T02:58:39.457Z,12.02
2022-10-01T02:59:02.078Z,11.75
2022-10-01T02:59:24.797Z,12.52
2022-10-01T02:59:47.705Z,12.93
2022-10-01T03:00:11.947Z,13.07
2022-10-01T03:00:35.049Z,13.70
2022-10-01T03:00:57.790Z,13.73
2022-10-01T03:01:20.516Z,13.98
2022-10-01T03:01:43.290Z,13.73
2022-10-01T03:02:06.076Z,12.90
2022-10-01T03:02:29.883Z,13.95
2022-10-01T03:02:54.991Z,13.30
2022-10-01T03:03:17.774Z,13.52
2022-10-01T03:03:42.263Z,13.27
2022-10-01T03:04:04.972Z,13.57
2022-10-01T03:04:27.779Z,13.50
2022-10-01T03:04:53.336Z,13.13
2022-10-01T03:05:16.230Z,13.05
2022-10-01T03:05:38.985Z,13.63
2022-10-01T03:06:01.755Z,13.38
2022-10-01T03:06:24.379Z,14.05
2022-10-01T03:06:47.116Z,15.02
2022-10-01T03:07:09.952Z,14.90
2022-10-01T03:07:34.762Z,14.80
2022-10-01T03:07:57.756Z,15.20
2022-10-01T03:08:20.456Z,14.93
2022-10-01T03:08:43.174Z,15.13
2022-10-01T03:09:08.822Z,15.13
2022-10-01T03:09:31.886Z,15.13
2022-10-01T03:09:54.486Z,14.88
2022-10-01T03:10:17.295Z,14.10
2022-10-01T03:10:42.458Z,14.18
2022-10-01T03:11:09.529Z,14.25
2022-10-01T03:11:32.454Z,14.10
2022-10-01T03:11:55.357Z,13.85
2022-10-01T03:12:18.430Z,13.93
2022-10-01T03:12:42.616Z,14.45
2022-10-01T03:13:06.729Z,13.70
2022-10-01T03:13:29.436Z,14.23
2022-10-01T03:13:54.080Z,14.88
2022-10-01T03:14:19.885Z,13.73
2022-10-01T03:14:42.707Z,13.90
2022-10-01T03:15:07.375Z,14.25
2022-10-01T03:15:30.040Z,14.55
2022-10-01T03:15:53.002Z,13.82
2022-10-01T03:16:15.862Z,13.68
2022-10-01T03:16:38.695Z,13.00
2022-10-01T03:17:02.479Z,13.18
2022-10-01T03:17:25.126Z,13.45
2022-10-01T03:17:51.522Z,13.77
2022-10-01T03:18:14.225Z,13.15
2022-10-01T03:18:36.963Z,13.55
2022-10-01T03:18:59.700Z,13.20
2022-10-01T03:19:22.455Z,13.27
2022-10-01T03:19:45.192Z,12.73
2022-10-01T03:20:09.068Z,12.40
2022-10-01T03:20:31.834Z,12.52
2022-10-01T03:20:54.782Z,13.15
2022-10-01T03:21:17.555Z,12.73
2022-10-01T03:21:40.241Z,12.00
2022-10-01T03:22:02.995Z,12.27
2022-10-01T03:22:25.715Z,12.70
2022-10-01T03:22:48.475Z,12.43
2022-10-01T03:23:11.120Z,12.85
2022-10-01T03:23:33.860Z,11.85
2022-10-01T03:23:56.631Z,12.25
2022-10-01T03:24:19.350Z,12.75
2022-10-01T03:24:42.092Z,12.68
2022-10-01T03:25:05.445Z,13.13
2022-10-01T03:25:28.215Z,12.73
2022-10-01T03:25:51.101Z,13.13
2022-10-01T03:26:13.931Z,14.10
2022-10-01T03:26:36.635Z,13.98
2022-10-01T03:26:59.326Z,13.25
2022-10-01T03:27:22.105Z,13.52
2022-10-01T03:27:46.834Z,13.48
2022-10-01T03:28:09.647Z,13.82
2022-10-01T03:28:32.490Z,13.57
2022-10-01T03:28:56.555Z,14.65
2022-10-01T03:29:19.355Z,13.63
2022-10-01T03:29:42.100Z,13.60
2022-10-01T03:30:05.930Z,13.05
2022-10-01T03:30:28.629Z,13.02
2022-10-01T03:30:51.350Z,12.80
2022-10-01T03:31:14.117Z,12.73
2022-10-01T03:31:38.518Z,13.65
2022-10-01T03:32:01.778Z,12.95
2022-10-01T03:32:24.683Z,12.88
2022-10-01T03:32:47.355Z,12.70
2022-10-01T03:33:10.084Z,12.93
2022-10-01T03:33:32.780Z,13.30
2022-10-01T03:33:57.951Z,13.20
2022-10-01T03:34:20.768Z,13.13
2022-10-01T03:34:43.465Z,13.73
2022-10-01T03:35:07.914Z,13.30
2022-10-01T03:35:32.076Z,13.07
2022-10-01T03:35:55.380Z,13.25
2022-10-01T03:36:18.078Z,12.60
2022-10-01T03:36:40.861Z,13.32
2022-10-01T03:37:03.861Z,12.80
2022-10-01T03:37:26.616Z,12.88
2022-10-01T03:37:49.620Z,13.20
2022-10-01T03:38:13.956Z,13.05
2022-10-01T03:38:36.646Z,13.27
2022-10-01T03:38:59.360Z,13.10
2022-10-01T03:39:22.831Z,12.45
2022-10-01T03:39:45.585Z,13.05
2022-10-01T03:40:09.416Z,13.00
2022-10-01T03:40:34.417Z,13.55
2022-10-01T03:40:59.960Z,13.27
2022-10-01T03:41:22.681Z,12.85
2022-10-01T03:41:45.380Z,13.50
2022-10-01T03:42:08.115Z,13.43
2022-10-01T03:42:30.821Z,13.20
2022-10-01T03:42:53.730Z,13.27
2022-10-01T03:43:16.498Z,13.05
2022-10-01T03:43:39.226Z,13.05
2022-10-01T03:44:03.514Z,13.55
2022-10-01T03:44:28.581Z,13.38
2022-10-01T03:44:51.360Z,13.95
2022-10-01T03:45:14.183Z,13.18
2022-10-01T03:45:36.895Z,13.10
2022-10-01T03:45:59.580Z,13.18
2022-10-01T03:46:22.460Z,13.00
2022-10-01T03:46:45.279Z,12.60
2022-10-01T03:47:08.009Z,12.80
2022-10-01T03:47:30.733Z,12.75
2022-10-01T03:47:55.871Z,13.07
2022-10-01T03:48:18.717Z,12.82
2022-10-01T03:48:41.441Z,13.60
2022-10-01T03:49:04.480Z,13.10
2022-10-01T03:49:27.999Z,13.05
2022-10-01T03:49:50.722Z,13.25
2022-10-01T03:50:13.952Z,14.02
2022-10-01T03:50:36.795Z,14.20
2022-10-01T03:50:59.782Z,14.38
2022-10-01T03:51:22.408Z,14.65
2022-10-01T03:51:45.699Z,13.68
2022-10-01T03:52:08.430Z,14.40
2022-10-01T03:52:31.221Z,13.63
2022-10-01T03:52:53.910Z,13.98
2022-10-01T03:53:16.690Z,13.88
2022-10-01T03:53:39.365Z,13.07
2022-10-01T03:54:02.094Z,13.85
2022-10-01T03:54:25.574Z,13.18
2022-10-01T03:54:48.297Z,13.50
2022-10-01T03:55:11.091Z,13.07
2022-10-01T03:55:33.842Z,13.60
2022-10-01T03:55:56.558Z,13.63
2022-10-01T03:56:19.307Z,14.40
2022-10-01T03:56:42.729Z,13.77
2022-10-01T03:57:06.123Z,14.02
2022-10-01T03:57:28.905Z,13.80
2022-10-01T03:57:51.608Z,14.02
2022-10-01T03:58:14.228Z,14.00
2022-10-01T03:58:36.958Z,13.85
2022-10-01T03:58:59.661Z,13.30
2022-10-01T03:59:24.002Z,13.32
2022-10-01T03:59:46.722Z,13.60
2022-10-01T04:00:12.058Z,13.30
2022-10-01T04:00:34.947Z,14.10
2022-10-01T04:00:58.109Z,13.82
2022-10-01T04:01:20.921Z,14.85
2022-10-01T04:01:43.840Z,14.27
2022-10-01T04:02:07.915Z,14.10
2022-10-01T04:02:30.761Z,14.32
2022-10-01T04:02:53.666Z,14.13
2022-10-01T04:03:16.421Z,14.38
2022-10-01T04:03:39.184Z,14.23
2022-10-01T04:04:02.213Z,14.35
2022-10-01T04:04:29.079Z,14.60
2022-10-01T04:04:51.997Z,14.73
2022-10-01T04:05:15.414Z,13.73
2022-10-01T04:05:39.226Z,14.67
2022-10-01T04:06:01.888Z,14.32
2022-10-01T04:06:24.643Z,13.93
2022-10-01T04:06:47.523Z,13.90
2022-10-01T04:07:10.178Z,13.52
2022-10-01T04:07:32.829Z,13.93
2022-10-01T04:07:55.518Z,14.30
2022-10-01T04:08:23.434Z,14.38
2022-10-01T04:08:47.211Z,14.82
2022-10-01T04:09:10.254Z,16.23
2022-10-01T04:09:32.934Z,15.57
2022-10-01T04:09:55.692Z,15.30
2022-10-01T04:10:18.426Z,14.55
2022-10-01T04:10:41.278Z,15.23
2022-10-01T04:11:03.913Z,15.38
2022-10-01T04:11:26.638Z,15.48
2022-10-01T04:11:49.640Z,15.70
2022-10-01T04:12:12.677Z,15.48
2022-10-01T04:12:35.358Z,15.32
2022-10-01T04:12:58.636Z,15.60
2022-10-01T04:13:21.297Z,15.40
2022-10-01T04:13:44.032Z,14.05
2022-10-01T04:14:06.852Z,14.10
2022-10-01T04:14:31.044Z,13.82
2022-10-01T04:14:53.732Z,13.55
2022-10-01T04:15:16.998Z,13.82
2022-10-01T04:15:40.351Z,14.32
2022-10-01T04:16:03.335Z,13.90
2022-10-01T04:16:26.280Z,13.98
2022-10-01T04:16:52.789Z,14.23
2022-10-01T04:17:15.719Z,14.70
2022-10-01T04:17:40.682Z,14.82
2022-10-01T04:18:06.343Z,14.50
2022-10-01T04:18:29.102Z,15.13
2022-10-01T04:18:51.801Z,14.85
2022-10-01T04:19:14.488Z,14.60
2022-10-01T04:19:39.656Z,15.57
2022-10-01T04:20:02.405Z,16.10
2022-10-01T04:20:25.381Z,17.02
2022-10-01T04:20:48.163Z,16.15
2022-10-01T04:21:12.819Z,15.18
2022-10-01T04:21:37.283Z,15.27
2022-10-01T04:22:00.350Z,15.15
2022-10-01T04:22:23.205Z,15.55
2022-10-01T04:22:47.192Z,15.32
2022-10-01T04:23:09.890Z,15.48
2022-10-01T04:23:32.618Z,15.65
2022-10-01T04:23:55.350Z,15.90
2022-10-01T04:24:18.130Z,16.45
2022-10-01T04:24:40.831Z,15.80
2022-10-01T04:25:03.888Z,15.40
2022-10-01T04:25:26.775Z,15.60
2022-10-01T04:25:49.535Z,15.52
2022-10-01T04:26:12.315Z,15.50
2022-10-01T04:26:35.016Z,15.43
2022-10-01T04:26:57.837Z,15.50
2022-10-01T04:27:20.467Z,15.43
2022-10-01T04:27:55.442Z,15.30
2022-10-01T04:28:18.357Z,15.73
2022-10-01T04:28:41.102Z,16.30
2022-10-01T04:29:03.893Z,16.25
2022-10-01T04:29:26.679Z,15.55
2022-10-01T04:29:50.786Z,15.82
2022-10-01T04:30:13.563Z,15.70
2022-10-01T04:30:37.455Z,15.77
2022-10-01T04:31:19.150Z,16.70
2022-10-01T04:31:41.954Z,15.80
2022-10-01T04:32:04.882Z,15.68
2022-10-01T04:32:28.015Z,15.73
2022-10-01T04:32:51.686Z,15.82
2022-10-01T04:33:15.521Z,16.15
2022-10-01T04:33:38.160Z,15.45
2022-10-01T04:34:03.670Z,14.60
2022-10-01T04:34:46.357Z,15.02
2022-10-01T04:35:11.731Z,15.77
2022-10-01T04:35:34.657Z,14.73
2022-10-01T04:35:57.337Z,15.60
2022-10-01T04:36:20.654Z,16.00
2022-10-01T04:36:43.377Z,15.90
2022-10-01T04:37:05.992Z,16.92
2022-10-01T04:37:28.912Z,16.63
2022-10-01T04:37:56.948Z,15.70
2022-10-01T04:38:19.676Z,15.27
2022-10-01T04:38:43.073Z,15.88
2022-10-01T04:39:05.902Z,15.77
2022-10-01T04:39:28.642Z,15.90
2022-10-01T04:39:51.457Z,15.32
2022-10-01T04:40:14.175Z,15.55
2022-10-01T04:40:39.681Z,16.25
2022-10-01T04:41:02.562Z,15.82
2022-10-01T04:41:26.206Z,15.30
2022-10-01T04:41:52.171Z,14.55
2022-10-01T04:42:14.914Z,15.73
2022-10-01T04:42:40.835Z,15.68
2022-10-01T04:43:04.101Z,16.23
2022-10-01T04:43:26.917Z,16.05
2022-10-01T04:43:49.833Z,18.48
2022-10-01T04:44:12.780Z,17.17
2022-10-01T04:44:35.965Z,16.23
2022-10-01T04:45:01.115Z,16.88
2022-10-01T04:45:23.809Z,17.13
2022-10-01T04:45:46.540Z,16.40
2022-10-01T04:46:09.279Z,17.17
2022-10-01T04:46:32.137Z,16.30
2022-10-01T04:46:54.918Z,16.33
2022-10-01T04:47:17.778Z,16.02
2022-10-01T04:47:48.610Z,16.17
2022-10-01T04:48:11.350Z,15.65
2022-10-01T04:48:34.026Z,16.50
2022-10-01T04:48:56.807Z,16.67
2022-10-01T04:49:19.520Z,15.80
2022-10-01T04:49:42.245Z,15.85
2022-10-01T04:50:05.948Z,16.15
2022-10-01T04:50:31.521Z,16.17
2022-10-01T04:50:54.236Z,15.77
2022-10-01T04:51:17.180Z,15.15
2022-10-01T04:51:39.994Z,15.63
2022-10-01T04:52:03.130Z,16.92
2022-10-01T04:52:26.131Z,16.70
2022-10-01T04:52:48.784Z,15.77
2022-10-01T04:53:11.560Z,15.85
2022-10-01T04:53:34.235Z,16.30
2022-10-01T04:53:59.914Z,15.82
2022-10-01T04:54:22.594Z,15.80
2022-10-01T04:54:45.300Z,15.38
2022-10-01T04:55:08.901Z,15.98
2022-10-01T04:55:31.670Z,15.70
2022-10-01T04:55:54.397Z,15.70
2022-10-01T04:56:17.204Z,15.48
2022-10-01T04:56:39.929Z,15.43
2022-10-01T04:57:02.624Z,16.05
2022-10-01T04:57:25.320Z,17.05
2022-10-01T04:57:48.068Z,16.70
2022-10-01T04:58:10.761Z,16.95
2022-10-01T04:58:33.420Z,17.17
2022-10-01T04:58:56.157Z,17.20
2022-10-01T04:59:19.529Z,17.55
2022-10-01T04:59:42.251Z,17.23
2022-10-01T05:00:08.039Z,17.10
2022-10-01T05:00:33.282Z,17.00
2022-10-01T05:01:01.054Z,15.63
2022-10-01T05:01:25.378Z,17.55
2022-10-01T05:01:48.305Z,17.30
2022-10-01T05:02:11.078Z,16.67
2022-10-01T05:02:34.775Z,17.08
2022-10-01T05:02:58.531Z,16.90
2022-10-01T05:03:21.402Z,16.02
2022-10-01T05:03:44.146Z,16.30
2022-10-01T05:04:06.872Z,16.48
2022-10-01T05:04:29.818Z,16.73
2022-10-01T05:04:52.479Z,17.60
2022-10-01T05:05:15.698Z,17.25
2022-10-01T05:05:39.028Z,17.02
2022-10-01T05:06:02.107Z,16.98
2022-10-01T05:06:24.791Z,17.52
2022-10-01T05:06:47.406Z,17.00
2022-10-01T05:07:10.175Z,17.20
2022-10-01T05:07:32.971Z,16.77
2022-10-01T05:07:55.830Z,17.20
2022-10-01T05:08:18.501Z,16.90
2022-10-01T05:08:41.325Z,17.13
2022-10-01T05:09:04.520Z,16.55
2022-10-01T05:09:27.205Z,17.42
2022-10-01T05:09:49.925Z,17.45
2022-10-01T05:10:13.569Z,17.02
2022-10-01T05:10:36.696Z,16.65
2022-10-01T05:11:00.668Z,17.40
2022-10-01T05:11:23.367Z,17.17
2022-10-01T05:11:46.085Z,16.63
2022-10-01T05:12:09.776Z,17.20
2022-10-01T05:12:32.505Z,16.98
2022-10-01T05:12:55.196Z,17.67
2022-10-01T05:13:17.929Z,17.95
2022-10-01T05:13:40.655Z,17.38